Time;durP1;ratioP1;P1;durP2;ratioP2;P2;SDS_P1;SDS_P2;PMS_P1;PMS_P2;Temp;Humidity;BMP_temperature;BMP_pressure;BME280_temperature;BME280_humidity;BME280_pressure;Samples;Min_cycle;Max_cycle;Signal;HPM_P1;HPM_P2
2023/05/16 00:02:40;;;;;;;3.60;2.60;;;;;;;17.50;61.62;96357.59;10377831;28;20296;-25
2023/05/16 00:07:43;;;;;;;2.40;2.20;;;;;;;17.46;60.59;96356.75;10381716;28;20389;-25
2023/05/16 00:12:50;;;;;;;2.17;1.80;;;;;;;17.46;59.98;96360.94;10371271;28;20364;-26
2023/05/16 00:17:51;;;;;;;2.80;2.20;;;;;;;17.45;60.36;96359.25;10381451;28;20173;-26
2023/05/16 00:22:51;;;;;;;3.00;2.10;;;;;;;17.45;60.15;96354.22;10379439;28;20091;-25
2023/05/16 00:27:52;;;;;;;2.07;1.83;;;;;;;17.44;59.76;96358.44;10381481;28;20026;-26
2023/05/16 00:32:54;;;;;;;3.03;2.50;;;;;;;17.43;59.97;96359.28;10369262;28;20296;-26
2023/05/16 00:37:55;;;;;;;2.20;2.00;;;;;;;17.41;59.79;96352.53;10358189;28;20033;-25
2023/05/16 00:42:55;;;;;;;2.10;1.65;;;;;;;17.44;60.14;96347.47;10375244;28;20501;-25
2023/05/16 00:47:56;;;;;;;2.50;2.27;;;;;;;17.42;59.78;96339.84;10378385;28;20022;-26
2023/05/16 00:52:56;;;;;;;2.93;2.60;;;;;;;17.49;64.03;96340.72;10378341;28;20482;-25
2023/05/16 00:57:58;;;;;;;2.97;2.67;;;;;;;17.49;64.26;96336.47;10353688;28;20432;-26
2023/05/16 01:02:59;;;;;;;3.75;2.80;;;;;;;17.52;64.10;96340.69;10372347;28;20100;-25
2023/05/16 01:07:59;;;;;;;3.55;2.85;;;;;;;17.50;63.62;96337.34;10370014;28;20034;-25
2023/05/16 01:13:11;;;;;;;1.73;1.63;;;;;;;17.45;60.67;96339.88;10369606;28;20128;-25
2023/05/16 01:18:21;;;;;;;2.70;2.38;;;;;;;17.38;60.26;96330.59;10377778;28;20105;-25
2023/05/16 01:23:59;;;;;;;2.47;2.22;;;;;;;17.44;59.97;96342.41;10376096;28;20045;-26
2023/05/16 01:28:59;;;;;;;;;;;;;;;17.43;60.32;96340.72;10348162;28;20054;-25
2023/05/16 01:34:00;;;;;;;1.90;1.70;;;;;;;17.41;60.10;96337.34;10391351;28;20403;-25
2023/05/16 01:39:03;;;;;;;1.90;1.70;;;;;;;17.40;60.20;96336.50;10377019;28;20037;-25
2023/05/16 01:44:10;;;;;;;2.35;2.15;;;;;;;17.40;60.04;96338.22;10379438;28;20765;-25
2023/05/16 01:49:34;;;;;;;2.03;1.83;;;;;;;17.40;59.91;96344.09;10375852;28;20064;-25
2023/05/16 01:54:37;;;;;;;2.03;1.70;;;;;;;17.40;60.12;96343.28;10383219;28;20068;-25
2023/05/16 01:59:39;;;;;;;4.25;2.97;;;;;;;17.46;64.04;96340.69;10348682;28;20083;-26
2023/05/16 02:04:39;;;;;;;3.17;2.72;;;;;;;17.46;64.02;96325.50;10360962;28;20410;-25
2023/05/16 02:09:40;;;;;;;3.90;3.20;;;;;;;17.50;63.90;96337.34;10396148;28;20092;-25
2023/05/16 02:14:41;;;;;;;2.83;2.22;;;;;;;17.50;63.82;96338.16;10373132;28;20038;-25
2023/05/16 02:19:41;;;;;;;2.08;1.90;;;;;;;17.44;60.72;96337.34;10350848;28;20034;-25
2023/05/16 02:24:41;;;;;;;2.27;1.97;;;;;;;17.39;60.65;96334.81;10349628;28;20120;-26
2023/05/16 02:29:42;;;;;;;2.30;2.10;;;;;;;17.43;60.34;96343.25;10375539;28;20029;-25
2023/05/16 02:34:42;;;;;;;1.93;1.73;;;;;;;17.41;60.15;96337.34;10367973;28;20033;-25
2023/05/16 02:39:42;;;;;;;2.40;1.93;;;;;;;17.40;60.33;96330.63;10377406;28;20485;-26
2023/05/16 02:44:43;;;;;;;2.40;1.80;;;;;;;17.40;60.00;96333.97;10382892;28;20034;-25
2023/05/16 02:49:43;;;;;;;2.40;2.00;;;;;;;17.40;59.93;96328.09;10375223;28;20026;-25
2023/05/16 02:54:44;;;;;;;2.50;1.50;;;;;;;17.40;59.97;96325.56;10364928;28;20681;-25
2023/05/16 02:59:44;;;;;;;1.73;1.63;;;;;;;17.39;59.74;96323.84;10365272;28;20025;-25
2023/05/16 03:04:45;;;;;;;2.83;2.30;;;;;;;17.41;62.96;96325.53;10348064;28;20046;-25
2023/05/16 03:09:45;;;;;;;2.77;2.37;;;;;;;17.45;63.79;96323.84;10374667;28;20030;-25
2023/05/16 03:14:45;;;;;;;3.07;2.57;;;;;;;17.46;64.06;96320.47;10355648;28;20523;-25
2023/05/16 03:19:46;;;;;;;2.97;2.20;;;;;;;17.45;63.77;96318.78;10377421;28;20033;-25
2023/05/16 03:24:46;;;;;;;2.13;1.92;;;;;;;17.44;63.24;96323.00;10374061;28;20046;-25
2023/05/16 03:29:47;;;;;;;2.00;1.80;;;;;;;17.42;60.48;96321.31;10371778;28;20022;-26
2023/05/16 03:34:47;;;;;;;2.10;1.90;;;;;;;17.40;60.35;96326.38;10359395;28;20041;-26
2023/05/16 03:39:47;;;;;;;1.90;1.80;;;;;;;17.40;60.32;96328.09;10387783;28;20319;-25
2023/05/16 03:44:48;;;;;;;2.65;1.90;;;;;;;17.38;60.00;96327.22;10347606;28;20045;-26
2023/05/16 03:49:48;;;;;;;1.85;1.75;;;;;;;17.39;59.97;96323.84;10372593;28;20040;-26
2023/05/16 03:54:49;;;;;;;3.73;2.40;;;;;;;17.42;61.71;96329.75;10361175;28;20033;-25
2023/05/16 03:59:49;;;;;;;3.10;2.13;;;;;;;17.43;61.12;96330.59;10374929;28;20037;-25
2023/05/16 04:04:50;;;;;;;2.63;1.97;;;;;;;17.42;60.01;96336.50;10372408;28;20277;-25
2023/05/16 04:09:50;;;;;;;3.58;2.17;;;;;;;17.45;60.11;96341.56;10380578;28;20122;-26
2023/05/16 04:14:51;;;;;;;3.03;2.47;;;;;;;17.47;63.20;96337.31;10371019;28;20033;-25
2023/05/16 04:19:51;;;;;;;2.28;2.08;;;;;;;17.50;63.55;96344.94;10391440;28;20460;-26
2023/05/16 04:24:52;;;;;;;4.27;2.33;;;;;;;17.54;63.52;96346.59;10379371;28;20044;-25
2023/05/16 04:29:52;;;;;;;2.60;2.20;;;;;;;17.52;62.97;96339.03;10384183;28;20802;-25
2023/05/16 04:34:53;;;;;;;2.77;2.30;;;;;;;17.53;63.21;96344.91;10371578;28;20280;-25
2023/05/16 04:39:53;;;;;;;3.60;2.42;;;;;;;17.52;62.61;96345.75;10393442;28;20281;-26
2023/05/16 04:44:55;;;;;;;1.95;1.75;;;;;;;17.52;60.79;96351.69;10373700;28;20044;-27
2023/05/16 04:49:55;;;;;;;2.75;2.55;;;;;;;17.50;62.49;96355.06;10387766;28;20029;-25
2023/05/16 04:54:58;;;;;;;3.87;3.23;;;;;;;17.46;62.96;96346.63;10386589;28;20512;-26
2023/05/16 04:59:58;;;;;;;3.13;2.83;;;;;;;17.52;61.41;96350.81;10386031;28;20076;-25
2023/05/16 05:04:58;;;;;;;3.93;2.63;;;;;;;17.55;61.39;96360.94;10385657;28;20084;-25
2023/05/16 05:09:59;;;;;;;4.33;2.50;;;;;;;17.54;62.73;96362.63;10384113;28;20557;-25
2023/05/16 05:14:59;;;;;;;4.83;2.73;;;;;;;17.55;63.28;96360.94;10387167;28;20038;-25
2023/05/16 05:20:05;;;;;;;4.00;3.28;;;;;;;17.55;62.94;96366.84;10376835;28;20312;-26
2023/05/16 05:25:06;;;;;;;6.57;3.30;;;;;;;17.55;64.84;96360.94;10382407;28;20453;-25
2023/05/16 05:30:07;;;;;;;12.38;4.25;;;;;;;17.53;62.89;96366.00;10402684;28;20370;-25
2023/05/16 05:35:07;;;;;;;6.55;4.30;;;;;;;17.39;62.26;96371.91;10390455;28;20557;-25
2023/05/16 05:40:08;;;;;;;7.10;3.20;;;;;;;17.47;62.61;96372.75;10386405;28;20041;-25
2023/05/16 05:45:09;;;;;;;3.58;2.80;;;;;;;17.51;62.22;96369.38;10399716;28;20034;-27
2023/05/16 05:50:13;;;;;;;5.50;3.28;;;;;;;17.52;63.55;96374.47;10381841;28;20031;-25
2023/05/16 05:55:13;;;;;;;5.60;3.15;;;;;;;17.52;61.84;96376.13;10382971;28;20030;-25
2023/05/16 06:00:14;;;;;;;3.60;3.30;;;;;;;17.52;62.35;96381.19;10389382;28;20029;-25
2023/05/16 06:05:14;;;;;;;4.32;2.75;;;;;;;17.52;61.50;96387.09;10379030;28;20037;-26
2023/05/16 06:10:15;;;;;;;3.30;2.40;;;;;;;17.52;61.21;96378.66;10368450;28;20037;-25
2023/05/16 06:15:15;;;;;;;4.93;2.47;;;;;;;17.52;61.62;96388.78;10376589;28;20402;-25
2023/05/16 06:20:16;;;;;;;3.33;2.17;;;;;;;17.51;60.94;96390.47;10375423;28;20037;-25
2023/05/16 06:25:16;;;;;;;3.55;2.20;;;;;;;17.52;60.72;96396.38;10398496;28;20084;-26
2023/05/16 06:30:16;;;;;;;3.97;2.40;;;;;;;17.53;62.60;96400.59;10387301;28;20516;-25
2023/05/16 06:35:17;;;;;;;4.45;2.63;;;;;;;17.50;64.23;96403.13;10386822;28;20034;-25
2023/05/16 06:40:17;;;;;;;4.70;2.42;;;;;;;17.50;64.05;96408.19;10374846;28;20613;-25
2023/05/16 06:45:18;;;;;;;2.75;2.40;;;;;;;17.53;63.61;96413.25;10382982;28;20506;-25
2023/05/16 06:50:18;;;;;;;3.83;2.73;;;;;;;17.51;62.97;96415.78;10383871;28;20034;-26
2023/05/16 06:55:19;;;;;;;2.58;2.00;;;;;;;17.51;61.56;96420.00;10399244;28;20362;-25
2023/05/16 07:00:19;;;;;;;3.50;1.93;;;;;;;17.52;60.79;96416.63;10366106;28;20410;-26
2023/05/16 07:05:20;;;;;;;2.45;2.00;;;;;;;17.52;60.63;96420.00;10381156;28;20307;-26
2023/05/16 07:10:21;;;;;;;2.25;2.00;;;;;;;17.53;60.79;96418.31;10399599;28;20030;-26
2023/05/16 07:15:21;;;;;;;3.42;1.83;;;;;;;17.52;60.16;96417.47;10379422;28;20029;-26
2023/05/16 07:20:22;;;;;;;3.07;1.57;;;;;;;17.50;60.01;96424.22;10369471;28;20048;-26
2023/05/16 07:25:23;;;;;;;2.47;2.28;;;;;;;17.52;60.16;96431.81;10379628;28;20077;-25
2023/05/16 07:30:23;;;;;;;2.60;2.15;;;;;;;17.51;60.14;96427.59;10376975;28;20026;-25
2023/05/16 07:35:24;;;;;;;3.10;1.60;;;;;;;17.49;60.03;96436.88;10386434;28;20096;-26
2023/05/16 07:40:27;;;;;;;3.50;1.93;;;;;;;17.51;63.21;96441.06;10382091;28;20026;-26
2023/05/16 07:45:27;;;;;;;2.00;1.80;;;;;;;17.49;63.79;96447.00;10390032;28;20296;-25
2023/05/16 07:50:28;;;;;;;2.70;2.17;;;;;;;17.49;63.65;96437.72;10386742;28;20038;-25
2023/05/16 07:55:28;;;;;;;3.47;2.10;;;;;;;17.51;63.23;96447.84;10388161;28;20116;-25
2023/05/16 08:00:29;;;;;;;2.47;2.00;;;;;;;17.47;60.73;96438.56;10398879;28;20034;-26
2023/05/16 08:05:29;;;;;;;4.55;2.00;;;;;;;17.51;60.17;96450.38;10381966;28;20042;-25
2023/05/16 08:10:30;;;;;;;3.00;1.83;;;;;;;17.50;60.42;96456.28;10386436;28;20033;-25
2023/05/16 08:15:30;;;;;;;1.70;1.57;;;;;;;17.49;60.22;96462.19;10380782;28;20528;-26
2023/05/16 08:20:30;;;;;;;1.60;1.50;;;;;;;17.49;59.99;96462.19;10381206;28;20297;-25
2023/05/16 08:25:31;;;;;;;2.20;1.60;;;;;;;17.49;60.11;96465.56;10388487;28;20042;-25
2023/05/16 08:30:31;;;;;;;2.27;1.60;;;;;;;17.48;59.73;96476.53;10372118;28;20036;-25
2023/05/16 08:35:34;;;;;;;1.93;1.30;;;;;;;17.49;60.19;96472.31;10379132;28;20053;-25
2023/05/16 08:40:34;;;;;;;1.83;1.35;;;;;;;17.49;59.73;96474.84;10396278;28;20037;-25
2023/05/16 08:45:35;;;;;;;1.65;1.50;;;;;;;17.46;59.74;96468.09;10371093;28;20040;-25
2023/05/16 08:50:35;;;;;;;2.37;2.17;;;;;;;17.49;63.26;96468.09;10388633;28;20041;-25
2023/05/16 08:55:36;;;;;;;2.58;1.90;;;;;;;17.48;63.91;96470.63;10379706;28;20435;-26
2023/05/16 09:00:38;;;;;;;1.67;1.58;;;;;;;17.50;63.74;96468.94;10378972;28;20041;-25
2023/05/16 09:05:40;;;;;;;2.17;1.75;;;;;;;17.49;63.36;96467.25;10379306;28;20042;-26
2023/05/16 09:10:40;;;;;;;1.98;1.55;;;;;;;17.49;60.57;96477.38;10394613;28;20033;-26
2023/05/16 09:15:41;;;;;;;1.42;1.30;;;;;;;17.46;60.28;96473.16;10378224;28;20414;-25
2023/05/16 09:20:48;;;;;;;1.50;1.40;;;;;;;17.47;59.97;96466.38;10379713;28;20092;-26
2023/05/16 09:25:52;;;;;;;1.60;1.50;;;;;;;17.46;59.60;96472.28;10394546;28;20083;-26
2023/05/16 09:30:53;;;;;;;1.60;1.50;;;;;;;17.46;60.13;96472.28;10369676;28;20026;-26
2023/05/16 09:35:55;;;;;;;1.50;1.40;;;;;;;17.44;59.67;96474.00;10378603;28;20508;-25
2023/05/16 09:40:56;;;;;;;1.83;1.73;;;;;;;17.46;59.81;96478.22;10385607;28;20037;-25
2023/05/16 09:45:58;;;;;;;1.45;1.35;;;;;;;17.48;60.36;96486.66;10377079;28;20437;-25
2023/05/16 09:51:03;;;;;;;1.60;1.50;;;;;;;17.48;60.61;96480.75;10377781;28;20454;-25
2023/05/16 09:56:05;;;;;;;1.70;1.60;;;;;;;17.49;60.98;96478.19;10376689;28;20516;-25
2023/05/16 10:01:07;;;;;;;1.67;1.58;;;;;;;17.49;63.27;96487.50;10376355;28;20049;-26
2023/05/16 10:06:08;;;;;;;3.17;1.92;;;;;;;17.48;63.48;96483.28;10377104;28;20030;-26
2023/05/16 10:11:10;;;;;;;1.83;1.50;;;;;;;17.51;63.30;96470.63;10384135;28;20037;-26
2023/05/16 10:16:11;;;;;;;1.80;1.70;;;;;;;17.51;63.16;96473.97;10375452;28;20041;-26
2023/05/16 10:21:16;;;;;;;1.40;1.30;;;;;;;17.51;62.29;96473.16;10376968;28;20042;-25
2023/05/16 10:26:20;;;;;;;1.42;1.27;;;;;;;17.51;62.93;96475.69;10387282;28;20049;-25
2023/05/16 10:31:21;;;;;;;1.65;1.55;;;;;;;17.50;62.82;96477.34;10379519;28;20469;-26
2023/05/16 10:36:22;;;;;;;1.38;1.02;;;;;;;17.52;61.86;96477.38;10376258;28;20048;-25
2023/05/16 10:41:24;;;;;;;1.63;1.45;;;;;;;17.52;61.27;96468.09;10367340;28;20117;-25
2023/05/16 10:46:26;;;;;;;1.58;1.48;;;;;;;17.56;61.68;96479.91;10383478;28;20443;-26
2023/05/16 10:51:35;;;;;;;2.00;1.80;;;;;;;17.55;62.66;96488.34;10375317;28;20116;-26
2023/05/16 10:56:36;;;;;;;1.52;1.42;;;;;;;17.56;62.16;96482.44;10367797;28;20022;-26
2023/05/16 11:01:40;;;;;;;1.92;1.65;;;;;;;17.55;62.09;96479.88;10382935;28;20042;-25
2023/05/16 11:06:40;;;;;;;2.78;1.55;;;;;;;17.55;62.87;96482.41;10367332;28;20088;-26
2023/05/16 11:11:52;;;;;;;2.00;1.85;;;;;;;17.53;62.90;96484.97;10381079;28;20596;-26
2023/05/16 11:17:08;;;;;;;1.48;1.25;;;;;;;17.54;62.84;96490.84;10383843;28;20428;-25
2023/05/16 11:22:22;;;;;;;1.92;1.70;;;;;;;17.55;62.05;96497.59;10381430;28;20045;-25
2023/05/16 11:27:34;;;;;;;2.38;1.50;;;;;;;17.56;62.21;96497.63;10382425;28;20084;-26
2023/05/16 11:32:37;;;;;;;1.50;1.40;;;;;;;17.58;62.22;96502.69;10391205;28;20096;-25
2023/05/16 11:37:38;;;;;;;1.48;1.33;;;;;;;17.53;62.35;96499.31;10373891;28;20041;-25
2023/05/16 11:42:42;;;;;;;1.60;1.50;;;;;;;17.56;62.28;96500.16;10381245;28;20033;-26
2023/05/16 11:47:44;;;;;;;1.65;1.55;;;;;;;17.56;61.93;96504.38;10381532;28;20057;-25
2023/05/16 11:52:52;;;;;;;2.30;1.67;;;;;;;17.56;62.26;96510.28;10383026;28;20394;-26
2023/05/16 11:57:53;;;;;;;1.60;1.30;;;;;;;17.54;62.63;96511.09;10381026;28;20065;-26
2023/05/16 12:03:00;;;;;;;1.58;1.38;;;;;;;17.55;61.88;96517.84;10374951;28;20057;-27
2023/05/16 12:08:01;;;;;;;1.45;1.35;;;;;;;17.53;62.56;96515.34;10381221;28;20041;-26
2023/05/16 12:13:02;;;;;;;1.33;1.23;;;;;;;17.53;62.52;96519.53;10380620;28;20061;-25
2023/05/16 12:18:03;;;;;;;1.38;1.27;;;;;;;17.52;62.91;96522.94;10389843;28;20049;-26
2023/05/16 12:23:09;;;;;;;1.42;1.33;;;;;;;17.53;63.20;96524.63;10380649;28;20502;-25
2023/05/16 12:28:11;;;;;;;1.98;1.55;;;;;;;17.54;62.79;96523.75;10374482;28;20056;-25
2023/05/16 12:33:13;;;;;;;1.60;1.50;;;;;;;17.53;62.73;96532.19;10397265;28;20120;-26
2023/05/16 12:38:16;;;;;;;2.25;2.05;;;;;;;17.55;62.52;96538.09;10393645;28;20519;-26
2023/05/16 12:43:20;;;;;;;2.08;1.60;;;;;;;17.55;62.38;96538.09;10382348;28;20138;-26
2023/05/16 12:48:21;;;;;;;1.15;1.05;;;;;;;17.55;62.43;96538.09;10388460;28;20029;-26
2023/05/16 12:53:22;;;;;;;1.67;1.45;;;;;;;17.53;62.61;96539.78;10381795;28;20026;-26
2023/05/16 12:58:22;;;;;;;1.30;1.20;;;;;;;17.54;62.80;96533.88;10385052;28;20026;-26
2023/05/16 13:03:22;;;;;;;1.83;1.37;;;;;;;17.53;62.91;96543.19;10375057;28;20037;-25
2023/05/16 13:08:23;;;;;;;1.30;1.17;;;;;;;17.53;62.58;96552.44;10383706;28;20030;-25
2023/05/16 13:13:24;;;;;;;1.40;1.30;;;;;;;17.53;62.67;96552.44;10384826;28;20135;-26
2023/05/16 13:18:24;;;;;;;1.60;1.50;;;;;;;17.53;62.67;96560.03;10382886;28;20371;-26
2023/05/16 13:23:25;;;;;;;1.30;1.20;;;;;;;17.51;62.30;96565.09;10393924;28;20042;-26
2023/05/16 13:28:26;;;;;;;1.58;1.48;;;;;;;17.50;62.97;96570.19;10373620;28;20064;-26
2023/05/16 13:33:26;;;;;;;2.60;1.60;;;;;;;17.52;63.25;96569.34;10382431;28;20576;-26
2023/05/16 13:38:26;;;;;;;1.50;1.40;;;;;;;17.54;63.26;96581.97;10370745;28;20301;-25
2023/05/16 13:43:27;;;;;;;1.50;1.40;;;;;;;17.55;62.00;96588.72;10376591;28;20363;-25
2023/05/16 13:48:27;;;;;;;1.40;1.30;;;;;;;17.54;62.74;96587.91;10380008;28;20113;-26
2023/05/16 13:53:27;;;;;;;1.23;1.13;;;;;;;17.54;62.53;96587.03;10371447;28;20046;-26
2023/05/16 13:58:28;;;;;;;2.00;1.40;;;;;;;17.56;62.46;96598.03;10372309;28;20067;-25
2023/05/16 14:03:28;;;;;;;1.30;1.20;;;;;;;17.55;60.99;96598.84;10381773;28;20044;-26
2023/05/16 14:08:29;;;;;;;1.63;1.52;;;;;;;17.54;62.61;96612.34;10374995;28;20099;-26
2023/05/16 14:13:29;;;;;;;1.80;1.30;;;;;;;17.54;62.05;96617.41;10392842;28;20041;-26
2023/05/16 14:18:30;;;;;;;1.58;1.25;;;;;;;17.56;61.69;96620.81;10375963;28;20227;-26
2023/05/16 14:23:30;;;;;;;2.57;1.80;;;;;;;17.55;63.34;96614.91;10384705;28;20724;-25
2023/05/16 14:28:33;;;;;;;2.00;1.43;;;;;;;17.56;61.60;96614.06;10383453;28;20316;-26
2023/05/16 14:33:34;;;;;;;3.17;1.60;;;;;;;17.56;63.44;96613.22;10372731;28;20057;-26
2023/05/16 14:38:34;;;;;;;5.82;1.50;;;;;;;17.59;64.19;96625.88;10383513;28;20404;-26
2023/05/16 14:43:35;;;;;;;4.78;2.00;;;;;;;17.51;61.48;96618.25;10382513;28;20037;-24
2023/05/16 14:48:35;;;;;;;2.77;1.30;;;;;;;17.54;63.46;96627.53;10388574;28;20029;-25
2023/05/16 14:53:36;;;;;;;6.53;1.92;;;;;;;17.54;63.78;96633.47;10396467;28;20288;-26
2023/05/16 14:58:36;;;;;;;2.47;1.60;;;;;;;17.55;62.58;96641.88;10379150;28;20498;-26
2023/05/16 15:03:36;;;;;;;3.93;1.50;;;;;;;17.56;62.78;96651.19;10391134;28;20049;-25
2023/05/16 15:08:37;;;;;;;2.30;1.33;;;;;;;17.55;61.56;96657.06;10372621;28;20384;-26
2023/05/16 15:13:38;;;;;;;2.92;1.40;;;;;;;17.55;60.65;96654.53;10374374;28;20052;-26
2023/05/16 15:18:39;;;;;;;6.63;1.70;;;;;;;17.55;60.59;96659.59;10385479;28;20033;-25
2023/05/16 15:23:41;;;;;;;2.95;1.70;;;;;;;17.51;60.92;96657.91;10387261;28;20033;-26
2023/05/16 15:28:41;;;;;;;4.22;1.75;;;;;;;17.54;61.79;96661.31;10368803;28;20053;-25
2023/05/16 15:33:43;;;;;;;8.23;1.97;;;;;;;17.56;63.89;96658.78;10377960;28;20048;-26
2023/05/16 15:38:44;;;;;;;3.45;1.73;;;;;;;17.51;61.09;96658.75;10368078;28;20042;-25
2023/05/16 15:43:45;;;;;;;4.35;1.70;;;;;;;17.57;63.90;96657.94;10355430;28;20046;-26
2023/05/16 15:48:45;;;;;;;4.88;1.67;;;;;;;17.56;64.68;96666.38;10364309;28;20049;-26
2023/05/16 15:53:46;;;;;;;4.27;1.60;;;;;;;17.56;62.63;96671.44;10390918;28;20041;-26
2023/05/16 15:58:47;;;;;;;1.58;1.27;;;;;;;17.56;63.72;96673.97;10397029;28;20635;-26
2023/05/16 16:03:47;;;;;;;1.57;1.40;;;;;;;17.59;63.68;96684.09;10377114;28;20030;-25
2023/05/16 16:08:47;;;;;;;2.38;1.50;;;;;;;17.59;63.89;96681.56;10368964;28;20297;-26
2023/05/16 16:13:48;;;;;;;3.37;1.70;;;;;;;17.58;64.00;96682.41;10369272;28;20478;-25
2023/05/16 16:18:49;;;;;;;3.35;1.63;;;;;;;17.58;63.75;96679.88;10378405;28;20505;-25
2023/05/16 16:23:49;;;;;;;7.32;1.95;;;;;;;17.58;64.27;96684.94;10354621;28;20030;-25
2023/05/16 16:28:50;;;;;;;5.37;1.57;;;;;;;17.58;63.79;96679.88;10385723;28;20030;-25
2023/05/16 16:33:50;;;;;;;1.60;1.50;;;;;;;17.57;64.33;96684.09;10391156;28;20038;-25
2023/05/16 16:38:50;;;;;;;4.30;1.33;;;;;;;17.53;63.54;96686.59;10368012;28;20092;-26
2023/05/16 16:43:51;;;;;;;2.80;1.73;;;;;;;17.57;63.89;96683.25;10342604;28;20057;-26
2023/05/16 16:48:53;;;;;;;4.25;1.60;;;;;;;17.56;64.52;96686.63;10325228;28;20496;-26
2023/05/16 16:53:53;;;;;;;5.30;1.48;;;;;;;17.59;64.51;96702.66;10370543;28;20057;-25
2023/05/16 16:58:54;;;;;;;2.27;1.47;;;;;;;17.60;64.18;96713.63;10371315;28;20056;-26
2023/05/16 17:03:55;;;;;;;3.50;1.40;;;;;;;17.58;64.36;96710.25;10371334;28;20281;-25
2023/05/16 17:08:55;;;;;;;6.82;1.48;;;;;;;17.60;64.03;96718.69;10369915;28;20030;-25
2023/05/16 17:13:59;;;;;;;5.88;1.50;;;;;;;17.59;63.86;96717.00;10378555;28;20054;-25
2023/05/16 17:19:00;;;;;;;4.25;1.60;;;;;;;17.59;64.32;96729.66;10370158;28;20041;-25
2023/05/16 17:24:08;;;;;;;4.25;1.55;;;;;;;17.59;63.49;96742.31;10377752;28;20041;-25
2023/05/16 17:29:08;;;;;;;3.17;1.60;;;;;;;17.61;63.90;96738.09;10377086;28;20473;-26
2023/05/16 17:34:09;;;;;;;7.40;1.37;;;;;;;17.61;63.77;96730.50;10370433;28;20080;-26
2023/05/16 17:39:10;;;;;;;7.32;1.30;;;;;;;17.62;63.68;96732.19;10369391;28;20304;-26
2023/05/16 17:44:10;;;;;;;3.92;1.50;;;;;;;17.60;64.01;96737.28;10373422;28;20095;-26
2023/05/16 17:49:11;;;;;;;2.50;1.60;;;;;;;17.60;64.27;96738.94;10369536;28;20034;-26
2023/05/16 17:54:12;;;;;;;4.82;1.40;;;;;;;17.61;64.00;96735.56;10376536;28;20342;-26
2023/05/16 17:59:12;;;;;;;1.80;1.25;;;;;;;17.64;63.42;96743.16;10380754;28;20071;-26
2023/05/16 18:04:13;;;;;;;5.03;1.33;;;;;;;17.63;63.25;96744.88;10376869;28;20038;-26
2023/05/16 18:09:13;;;;;;;2.53;1.52;;;;;;;17.63;63.43;96759.19;10378340;28;20112;-25
2023/05/16 18:14:14;;;;;;;3.83;1.08;;;;;;;17.62;63.19;96757.50;10362030;28;20060;-26
2023/05/16 18:19:15;;;;;;;1.63;1.07;;;;;;;17.63;63.82;96754.13;10372251;28;20762;-26
2023/05/16 18:24:15;;;;;;;4.22;1.42;;;;;;;17.62;62.99;96748.25;10377162;28;20289;-26
2023/05/16 18:29:15;;;;;;;3.10;1.50;;;;;;;17.60;63.34;96756.66;10376162;28;20037;-26
2023/05/16 18:34:16;;;;;;;3.33;1.40;;;;;;;17.59;63.10;96754.97;10371951;28;20284;-26
2023/05/16 18:39:17;;;;;;;2.07;1.37;;;;;;;17.61;63.35;96758.34;10370946;28;20300;-25
2023/05/16 18:44:19;;;;;;;1.35;1.25;;;;;;;17.57;63.90;96754.13;10344230;28;20388;-25
2023/05/16 18:49:19;;;;;;;3.38;1.23;;;;;;;17.59;63.79;96768.47;10362372;28;20837;-27
2023/05/16 18:54:19;;;;;;;5.57;2.10;;;;;;;17.60;63.68;96766.78;10362316;28;20033;-25
2023/05/16 18:59:20;;;;;;;2.50;1.10;;;;;;;17.58;63.60;96768.47;10375898;28;20296;-26
2023/05/16 19:04:20;;;;;;;4.00;1.23;;;;;;;17.60;63.48;96774.38;10360212;28;20100;-24
2023/05/16 19:09:22;;;;;;;4.45;1.45;;;;;;;17.60;63.01;96787.91;10370714;28;20124;-26
2023/05/16 19:14:22;;;;;;;1.27;1.05;;;;;;;17.60;63.44;96784.50;10379438;28;20029;-26
2023/05/16 19:19:23;;;;;;;2.93;1.73;;;;;;;17.61;62.95;96791.28;10382466;28;20034;-25
2023/05/16 19:24:23;;;;;;;2.15;1.27;;;;;;;17.60;62.93;96792.97;10386460;28;20041;-26
2023/05/16 19:29:23;;;;;;;3.15;1.10;;;;;;;17.60;63.07;96804.75;10360899;28;20433;-25
2023/05/16 19:34:25;;;;;;;3.47;1.27;;;;;;;17.58;63.25;96816.56;10369991;28;20590;-25
2023/05/16 19:39:25;;;;;;;1.60;1.10;;;;;;;17.57;63.53;96817.41;10386854;28;20300;-26
2023/05/16 19:44:26;;;;;;;2.13;1.10;;;;;;;17.57;63.52;96835.16;10376457;28;20037;-26
2023/05/16 19:49:26;;;;;;;1.87;1.40;;;;;;;17.57;63.63;96835.16;10367647;28;20304;-25
2023/05/16 19:54:26;;;;;;;1.00;0.90;;;;;;;17.58;63.19;96834.31;10377789;28;20061;-26
2023/05/16 19:59:27;;;;;;;2.05;1.75;;;;;;;17.57;63.41;96842.72;10374551;28;20461;-26
2023/05/16 20:04:27;;;;;;;1.30;0.98;;;;;;;17.57;63.18;96840.19;10374528;28;20038;-26
2023/05/16 20:09:28;;;;;;;1.03;0.80;;;;;;;17.54;63.26;96851.16;10375406;28;20096;-26
2023/05/16 20:14:28;;;;;;;1.40;1.03;;;;;;;17.56;63.51;96861.31;10380167;28;20296;-26
2023/05/16 20:19:28;;;;;;;1.50;1.17;;;;;;;17.55;63.30;96862.09;10383082;28;20040;-25
2023/05/16 20:24:29;;;;;;;2.37;1.03;;;;;;;17.54;63.48;96860.41;10384728;28;20038;-26
2023/05/16 20:29:32;;;;;;;2.40;1.40;;;;;;;17.54;63.50;96875.59;10384995;28;20030;-25
2023/05/16 20:34:32;;;;;;;1.30;0.80;;;;;;;17.54;63.93;96875.59;10373316;28;20037;-25
2023/05/16 20:39:33;;;;;;;1.70;1.17;;;;;;;17.54;63.97;96878.13;10378715;28;20038;-26
2023/05/16 20:44:34;;;;;;;2.30;1.27;;;;;;;17.55;64.64;96878.16;10380729;28;20671;-25
2023/05/16 20:49:38;;;;;;;1.20;1.00;;;;;;;17.56;64.45;96879.03;10371686;28;20420;-25
2023/05/16 20:54:40;;;;;;;2.65;1.20;;;;;;;17.58;64.23;96882.41;10367179;28;20300;-25
2023/05/16 20:59:40;;;;;;;2.33;0.93;;;;;;;17.57;64.13;96891.66;10373666;28;20296;-26
2023/05/16 21:04:41;;;;;;;6.10;1.50;;;;;;;17.56;63.84;96889.97;10370553;28;20037;-25
2023/05/16 21:09:41;;;;;;;3.83;1.30;;;;;;;17.55;63.79;96889.94;10379755;28;20025;-25
2023/05/16 21:14:42;;;;;;;2.63;1.17;;;;;;;17.56;64.12;96899.28;10375635;28;20026;-25
2023/05/16 21:19:43;;;;;;;4.18;1.10;;;;;;;17.53;63.78;96899.22;10373370;28;20038;-25
2023/05/16 21:24:43;;;;;;;1.90;1.10;;;;;;;17.53;63.83;96897.56;10376920;28;20025;-26
2023/05/16 21:29:43;;;;;;;4.17;1.20;;;;;;;17.52;63.69;96895.00;10368303;28;20494;-25
2023/05/16 21:34:44;;;;;;;3.67;1.63;;;;;;;17.52;64.00;96903.47;10370090;28;20509;-26
2023/05/16 21:39:44;;;;;;;3.20;1.27;;;;;;;17.51;64.40;96911.03;10369459;28;20297;-25
2023/05/16 21:44:45;;;;;;;3.57;1.20;;;;;;;17.54;64.45;96921.16;10376440;28;20029;-26
2023/05/16 21:49:45;;;;;;;2.87;1.90;;;;;;;17.53;64.64;96919.47;10368122;28;20287;-25
2023/05/16 21:54:50;;;;;;;3.17;1.37;;;;;;;17.55;64.03;96928.78;10376545;28;20123;-26
2023/05/16 21:59:50;;;;;;;2.10;1.17;;;;;;;17.54;63.69;96934.69;10380884;28;20378;-25
2023/05/16 22:04:52;;;;;;;3.33;1.20;;;;;;;17.51;63.34;96931.28;10373080;28;20038;-25
2023/05/16 22:09:53;;;;;;;1.50;1.00;;;;;;;17.52;63.69;96927.91;10368687;28;20368;-25
2023/05/16 22:14:53;;;;;;;3.50;1.25;;;;;;;17.51;63.49;96938.88;10377659;28;20065;-25
2023/05/16 22:19:54;;;;;;;3.23;1.07;;;;;;;17.51;63.38;96937.19;10368827;28;20129;-25
2023/05/16 22:24:55;;;;;;;3.15;1.27;;;;;;;17.50;63.67;96937.19;10367446;28;20045;-26
2023/05/16 22:29:55;;;;;;;1.67;1.17;;;;;;;17.50;63.57;96944.78;10367614;28;20030;-25
2023/05/16 22:34:56;;;;;;;1.83;1.10;;;;;;;17.49;63.46;96948.16;10372380;28;20413;-26
2023/05/16 22:39:56;;;;;;;2.10;1.20;;;;;;;17.45;64.30;96941.34;10362626;28;20490;-25
2023/05/16 22:44:57;;;;;;;2.77;1.30;;;;;;;17.49;64.12;96954.03;10371071;28;20030;-25
2023/05/16 22:49:57;;;;;;;2.00;1.10;;;;;;;17.50;64.31;96957.44;10372262;28;20807;-26
2023/05/16 22:54:59;;;;;;;2.10;1.10;;;;;;;17.51;63.96;96966.72;10362571;28;20041;-26
2023/05/16 22:59:59;;;;;;;1.83;1.30;;;;;;;17.49;63.70;96966.69;10378900;28;20445;-25
2023/05/16 23:05:00;;;;;;;2.50;0.97;;;;;;;17.47;63.64;96962.47;10378639;28;20096;-26
2023/05/16 23:10:00;;;;;;;1.93;1.20;;;;;;;17.48;63.59;96964.19;10370799;28;20037;-26
2023/05/16 23:15:00;;;;;;;1.80;0.90;;;;;;;17.44;63.73;96970.03;10378107;28;20037;-26
2023/05/16 23:20:01;;;;;;;3.03;1.03;;;;;;;17.45;63.71;96967.53;10371525;28;20038;-25